Time;durP1;ratioP1;P1;durP2;ratioP2;P2;SDS_P1;SDS_P2;PMS_P1;PMS_P2;Temp;Humidity;BMP_temperature;BMP_pressure;BME280_temperature;BME280_humidity;BME280_pressure;Samples;Min_cycle;Max_cycle;Signal;HPM_P1;HPM_P2
2022/03/08 00:02:21;;;;;;;;;;;-2.40;94.00;;;-3.44;67.19;97740.47;4989836;28;20264;-40
2022/03/08 00:04:47;;;;;;;;;;;-2.40;94.20;;;-3.47;67.78;97733.50;4992526;28;20095;-39
2022/03/08 00:07:13;;;;;;;;;;;-2.40;94.50;;;-3.65;67.39;97703.00;5000751;28;19913;-38
2022/03/08 00:09:38;;;;;;;;;;;-2.40;94.40;;;-3.48;67.35;97734.34;4997233;28;20427;-38
2022/03/08 00:12:05;;;;;;;;;;;-2.40;94.40;;;-3.50;67.64;97741.16;5000298;28;19921;-40
2022/03/08 00:14:32;;;;;;;;;;;-2.40;94.50;;;-3.50;67.29;97738.56;5004475;28;19924;-39
2022/03/08 00:16:57;;;;;;;;;;;-2.50;94.40;;;-3.52;67.18;97737.69;5008276;28;19926;-37
2022/03/08 00:19:23;;;;;;;;;;;-2.50;94.30;;;-3.52;67.00;97742.84;5002217;28;19967;-38
2022/03/08 00:21:48;;;;;;;;;;;-2.50;94.30;;;-3.52;67.46;97742.84;5006933;28;20406;-39
2022/03/08 00:24:16;;;;;;;;;;;-2.50;94.50;;;-3.55;68.18;97747.91;5000319;28;19917;-41
2022/03/08 00:26:41;;;;;;;;;;;-2.60;94.70;;;-3.52;68.01;97748.84;5005546;28;19921;-40
2022/03/08 00:29:07;;;;;;;;;;;-2.50;94.80;;;-3.54;68.57;97737.63;5001897;28;20349;-39
2022/03/08 00:31:33;;;;;;;;;;;-2.50;95.00;;;-3.54;68.22;97734.19;5006680;28;20542;-39
2022/03/08 00:33:59;;;;;;;;;;;-2.50;94.90;;;-3.56;68.52;97741.03;5002433;28;20017;-37
2022/03/08 00:36:24;;;;;;;;;;;-2.50;94.90;;;-3.65;69.08;97741.66;5006055;28;19920;-39
2022/03/08 00:38:50;;;;;;;;;;;-2.60;95.10;;;-3.64;68.84;97748.59;5004217;28;19913;-38
2022/03/08 00:41:16;;;;;;;;;;;-2.60;95.00;;;-3.67;68.28;97738.19;5005869;28;19936;-40
2022/03/08 00:43:41;;;;;;;;;;;-2.60;94.90;;;-3.67;68.61;97743.34;5003266;28;19913;-38
2022/03/08 00:46:07;;;;;;;;;;;-2.60;94.90;;;-3.71;68.84;97741.53;4999264;28;20654;-42
2022/03/08 00:48:33;;;;;;;;;;;-2.70;95.10;;;-3.71;68.75;97746.69;5001772;28;20203;-40
2022/03/08 00:50:58;;;;;;;;;;;-2.70;95.00;;;-3.71;68.23;97742.41;5005270;28;19918;-39
2022/03/08 00:53:24;;;;;;;;;;;-2.70;94.90;;;-3.69;67.79;97739.84;5002521;28;20437;-37
2022/03/08 00:55:49;;;;;;;;;;;-2.70;94.70;;;-3.70;67.05;97741.53;5002994;28;19960;-38
2022/03/08 00:58:15;;;;;;;;;;;-2.70;94.50;;;-3.70;67.42;97743.25;5003427;28;19921;-37
2022/03/08 01:00:41;;;;;;;;;;;-2.70;94.50;;;-3.78;67.24;97740.50;5003170;28;19964;-38
2022/03/08 01:03:07;;;;;;;;;;;-2.70;94.60;;;-3.80;67.60;97742.16;5006934;28;19975;-40
2022/03/08 01:05:33;;;;;;;;;;;-2.80;94.70;;;-3.82;67.80;97743.84;5003727;28;19921;-40
2022/03/08 01:08:00;;;;;;;;;;;-2.80;94.70;;;-3.87;68.28;97741.13;5009788;28;19925;-39
2022/03/08 01:10:26;;;;;;;;;;;-2.80;94.90;;;-3.94;68.51;97734.09;5005602;28;20308;-36
2022/03/08 01:12:53;;;;;;;;;;;-2.90;95.00;;;-3.94;68.72;97734.09;5003376;28;20334;-38
2022/03/08 01:15:21;;;;;;;;;;;-2.90;95.10;;;-3.95;69.07;97731.47;5007137;28;20020;-40
2022/03/08 01:17:47;;;;;;;;;;;-2.90;95.20;;;-4.00;69.16;97733.03;5003190;28;19945;-38
2022/03/08 01:20:13;;;;;;;;;;;-3.00;95.40;;;-4.07;69.93;97719.16;5006138;28;19917;-38
2022/03/08 01:22:39;;;;;;;;;;;-3.00;95.50;;;-4.12;70.74;97721.59;5001586;28;20011;-38
2022/03/08 01:25:05;;;;;;;;;;;-3.00;95.80;;;-4.13;70.52;97714.69;5004476;28;19917;-38
2022/03/08 01:27:31;;;;;;;;;;;-3.00;95.80;;;-4.09;70.12;97721.69;5004672;28;19917;-39
2022/03/08 01:29:57;;;;;;;;;;;-3.00;95.70;;;-4.10;70.63;97717.34;5005525;28;19924;-38
2022/03/08 01:32:22;;;;;;;;;;;-3.10;95.80;;;-4.11;71.29;97720.78;5003346;28;20202;-37
2022/03/08 01:34:48;;;;;;;;;;;-3.10;96.10;;;-4.15;71.52;97716.38;4997824;28;19913;-35
2022/03/08 01:37:14;;;;;;;;;;;-3.10;96.20;;;-4.16;71.37;97716.31;5001680;28;20313;-35
2022/03/08 01:39:39;;;;;;;;;;;-3.10;96.20;;;-4.17;71.08;97718.03;5006839;28;19928;-40
2022/03/08 01:42:15;;;;;;;;;;;-3.10;96.10;;;-4.21;71.02;97726.53;5005551;28;20350;-38
2022/03/08 01:44:42;;;;;;;;;;;-3.20;96.00;;;-4.21;70.89;97711.06;5004457;28;19913;-40
2022/03/08 01:47:12;;;;;;;;;;;-3.20;96.10;;;-4.19;70.65;97713.69;4995906;28;19922;-40
2022/03/08 01:49:38;;;;;;;;;;;-3.10;96.00;;;-4.24;70.81;97714.41;5001891;28;19925;-40
2022/03/08 01:52:04;;;;;;;;;;;-3.10;96.00;;;-4.24;71.47;97703.25;4997699;28;19925;-39
2022/03/08 01:54:30;;;;;;;;;;;-3.20;96.20;;;-4.25;72.01;97709.25;4996534;28;19925;-37
2022/03/08 01:56:55;;;;;;;;;;;-3.20;96.40;;;-4.26;71.88;97697.19;5003435;28;20404;-41
2022/03/08 01:59:21;;;;;;;;;;;-3.10;96.50;;;-4.27;72.34;97686.03;4985532;28;19945;-40
2022/03/08 02:01:46;;;;;;;;;;;-3.10;96.70;;;-4.23;71.76;97687.84;5006112;28;20043;-34
2022/03/08 02:04:12;;;;;;;;;;;-3.10;96.50;;;-4.26;71.80;97682.59;5005874;28;19952;-38
2022/03/08 02:06:38;;;;;;;;;;;-3.00;96.50;;;-4.11;72.16;97697.59;5005188;28;19928;-42
2022/03/08 02:09:03;;;;;;;;;;;-3.00;96.60;;;-4.10;72.45;97695.88;5006319;28;19956;-39
2022/03/08 02:11:29;;;;;;;;;;;-3.10;96.70;;;-4.07;72.57;97690.81;5008231;28;19921;-39
2022/03/08 02:13:55;;;;;;;;;;;-3.10;96.80;;;-4.10;72.65;97678.72;5000674;28;20469;-37
2022/03/08 02:16:21;;;;;;;;;;;-3.00;96.80;;;-4.11;72.10;97660.63;5002453;28;20437;-37
2022/03/08 02:18:47;;;;;;;;;;;-3.00;96.60;;;-4.13;72.18;97660.59;5006756;28;20364;-37
2022/03/08 02:21:13;;;;;;;;;;;-3.00;96.60;;;-4.10;72.10;97660.69;5009360;28;19953;-37
2022/03/08 02:23:38;;;;;;;;;;;-3.00;96.60;;;-4.09;72.13;97662.44;5007587;28;19913;-37
2022/03/08 02:26:04;;;;;;;;;;;-3.00;96.70;;;-4.15;72.17;97657.13;5010061;28;19940;-40
2022/03/08 02:28:30;;;;;;;;;;;-3.10;96.60;;;-4.19;71.79;97647.59;5006563;28;19919;-37
2022/03/08 02:30:56;;;;;;;;;;;-3.10;96.60;;;-4.23;72.28;97648.34;4995207;28;19917;-40
2022/03/08 02:33:22;;;;;;;;;;;-3.10;96.70;;;-4.33;72.65;97636.94;4998871;28;19917;-38
2022/03/08 02:35:47;;;;;;;;;;;-3.20;96.80;;;-4.49;73.02;97643.38;5007719;28;19928;-39
2022/03/08 02:38:13;;;;;;;;;;;-3.20;96.90;;;-4.33;72.62;97662.69;5008969;28;19959;-40
2022/03/08 02:40:41;;;;;;;;;;;-3.30;96.90;;;-4.35;72.77;97659.19;5006632;28;20037;-39
2022/03/08 02:43:09;;;;;;;;;;;-3.30;97.00;;;-4.42;73.12;97665.88;5007305;28;20293;-37
2022/03/08 02:45:35;;;;;;;;;;;-3.40;97.10;;;-4.52;73.43;97650.16;5004304;28;19917;-38
2022/03/08 02:48:01;;;;;;;;;;;-3.40;97.20;;;-4.48;73.61;97665.72;5001673;28;19921;-39
2022/03/08 02:50:26;;;;;;;;;;;-3.40;97.30;;;-4.46;73.35;97665.78;4986004;28;19917;-41
2022/03/08 02:52:54;;;;;;;;;;;-3.40;97.30;;;-4.47;74.20;97659.75;4996708;28;19927;-40
2022/03/08 02:55:22;;;;;;;;;;;-3.40;97.60;;;-4.47;74.23;97659.75;4999558;28;19917;-36
2022/03/08 02:57:47;;;;;;;;;;;-3.40;97.70;;;-4.45;73.64;97657.19;5001543;28;19936;-42
2022/03/08 03:00:15;;;;;;;;;;;-3.40;97.50;;;-4.42;74.01;97653.00;4998520;28;19948;-35
2022/03/08 03:02:40;;;;;;;;;;;-3.40;97.60;;;-4.45;74.02;97652.94;4985095;28;19924;-40
2022/03/08 03:05:09;;;;;;;;;;;-3.40;97.70;;;-4.48;74.30;97655.44;5003049;28;20136;-38
2022/03/08 03:07:34;;;;;;;;;;;-3.40;97.60;;;-4.55;74.26;97632.94;4998986;28;19920;-36
2022/03/08 03:10:04;;;;;;;;;;;-3.40;97.70;;;-4.47;74.38;97646.91;4999144;28;19948;-39
2022/03/08 03:12:30;;;;;;;;;;;-3.40;97.70;;;-4.49;74.39;97650.25;5000265;28;21829;-36
2022/03/08 03:14:55;;;;;;;;;;;-3.40;97.80;;;-4.50;75.43;97641.66;5006932;28;21293;-48
2022/03/08 03:17:21;;;;;;;;;;;-3.40;98.10;;;-4.50;75.38;97641.66;5007571;28;19949;-38
2022/03/08 03:19:49;;;;;;;;;;;-3.40;98.20;;;-4.51;75.33;97637.31;5013508;28;19921;-38
2022/03/08 03:22:15;;;;;;;;;;;-3.40;98.50;;;-4.58;74.88;97622.56;5008902;28;19928;-40
2022/03/08 03:24:41;;;;;;;;;;;-3.40;98.00;;;-4.52;75.30;97626.97;5013240;28;19913;-38
2022/03/08 03:27:06;;;;;;;;;;;-3.40;98.10;;;-4.54;75.59;97631.22;5012147;28;19921;-41
2022/03/08 03:29:32;;;;;;;;;;;-3.40;98.10;;;-4.58;75.52;97622.56;5002889;28;20418;-38
2022/03/08 03:31:57;;;;;;;;;;;-3.40;98.20;;;-4.57;74.65;97619.16;5002223;28;20118;-37
2022/03/08 03:34:23;;;;;;;;;;;-3.50;97.90;;;-4.52;75.33;97622.72;4998623;28;19920;-38
2022/03/08 03:36:49;;;;;;;;;;;-3.40;98.20;;;-4.56;75.33;97615.75;5000013;28;19920;-36
2022/03/08 03:39:14;;;;;;;;;;;-3.50;98.30;;;-4.57;75.42;97614.00;4997618;28;20078;-37
2022/03/08 03:41:40;;;;;;;;;;;-3.50;98.30;;;-4.59;76.11;97615.69;5002205;28;19917;-39
2022/03/08 03:44:05;;;;;;;;;;;-3.50;98.50;;;-4.64;76.33;97610.41;5000792;28;19921;-35
2022/03/08 03:46:31;;;;;;;;;;;-3.50;98.60;;;-4.63;76.76;97613.84;4998271;28;19918;-37
2022/03/08 03:48:57;;;;;;;;;;;-3.50;98.80;;;-4.62;75.79;97613.88;5000700;28;19964;-39
2022/03/08 03:51:22;;;;;;;;;;;-3.50;98.50;;;-4.61;75.63;97614.78;5003737;28;19917;-39
2022/03/08 03:53:48;;;;;;;;;;;-3.60;98.40;;;-4.65;75.94;97612.94;5000430;28;20010;-38
2022/03/08 03:56:13;;;;;;;;;;;-3.60;98.50;;;-4.77;76.08;97608.34;5000442;28;19921;-39
2022/03/08 03:58:39;;;;;;;;;;;-3.60;98.60;;;-4.69;76.22;97621.41;4999872;28;19983;-37
2022/03/08 04:01:05;;;;;;;;;;;-3.60;98.70;;;-4.70;76.19;97619.66;4996283;28;20020;-40
2022/03/08 04:03:31;;;;;;;;;;;-3.60;98.80;;;-4.69;75.48;97614.56;4998232;28;20386;-39
2022/03/08 04:05:56;;;;;;;;;;;-3.60;98.50;;;-4.67;75.19;97614.59;5004788;28;19971;-39
2022/03/08 04:08:22;;;;;;;;;;;-3.60;98.40;;;-4.71;75.51;97607.63;5001165;28;20364;-39
2022/03/08 04:10:49;;;;;;;;;;;-3.60;98.50;;;-4.64;74.69;97609.53;5000672;28;19922;-37
2022/03/08 04:13:15;;;;;;;;;;;-3.60;98.40;;;-4.62;74.19;97608.72;4982273;28;19928;-40
2022/03/08 04:15:41;;;;;;;;;;;-3.60;98.10;;;-4.62;73.79;97610.44;5000302;28;19917;-41
2022/03/08 04:18:07;;;;;;;;;;;-3.50;98.00;;;-4.60;73.68;97614.78;5009297;28;19913;-39
2022/03/08 04:20:33;;;;;;;;;;;-3.50;98.00;;;-4.62;73.40;97613.00;5005079;28;20294;-37
2022/03/08 04:22:58;;;;;;;;;;;-3.50;97.80;;;-4.65;73.51;97610.34;5001602;28;19917;-38
2022/03/08 04:25:25;;;;;;;;;;;-3.60;97.80;;;-4.73;73.39;97609.31;4999843;28;19956;-37
2022/03/08 04:27:51;;;;;;;;;;;-3.60;97.80;;;-4.73;74.28;97609.31;5000899;28;19918;-38
2022/03/08 04:30:17;;;;;;;;;;;-3.60;98.10;;;-4.77;74.10;97615.19;4997744;28;19921;-37
2022/03/08 04:32:43;;;;;;;;;;;-3.70;98.00;;;-4.82;74.41;97610.78;4998791;28;19931;-39
2022/03/08 04:35:09;;;;;;;;;;;-3.70;98.40;;;-4.84;74.43;97615.03;4994809;28;19943;-35
2022/03/08 04:37:34;;;;;;;;;;;-3.70;98.10;;;-4.84;73.95;97609.00;4997482;28;19921;-40
2022/03/08 04:40:00;;;;;;;;;;;-3.70;98.00;;;-4.84;73.67;97607.31;5002417;28;19921;-39
2022/03/08 04:42:26;;;;;;;;;;;-3.70;97.90;;;-4.85;73.77;97602.97;5000596;28;20551;-39
2022/03/08 04:44:51;;;;;;;;;;;-3.80;97.90;;;-4.85;74.20;97610.69;4999035;28;20304;-36
2022/03/08 04:47:20;;;;;;;;;;;-3.80;98.20;;;-4.89;74.63;97595.16;4998560;28;19927;-37
2022/03/08 04:49:46;;;;;;;;;;;-3.80;98.40;;;-4.87;74.68;97603.78;5000178;28;19967;-37
2022/03/08 04:52:11;;;;;;;;;;;-3.80;98.50;;;-4.84;74.88;97609.00;4999190;28;19926;-37
2022/03/08 04:54:37;;;;;;;;;;;-3.80;98.50;;;-4.90;74.87;97611.41;5018460;23;20398;-35
2022/03/08 04:57:03;;;;;;;;;;;-3.80;98.40;;;-4.90;74.83;97612.31;4997076;28;19918;-37
2022/03/08 04:59:28;;;;;;;;;;;-3.80;98.50;;;-4.85;74.33;97613.25;5000369;28;19921;-38
2022/03/08 05:01:54;;;;;;;;;;;-3.80;98.40;;;-4.78;74.35;97610.88;4998965;28;19943;-32
2022/03/08 05:04:21;;;;;;;;;;;-3.80;98.40;;;-4.76;74.46;97609.22;4989741;28;19961;-33
2022/03/08 05:06:47;;;;;;;;;;;-3.70;98.40;;;-4.77;74.66;97610.91;4974274;28;19913;-36
2022/03/08 05:09:12;;;;;;;;;;;-3.70;98.60;;;-4.71;74.80;97608.50;4975024;28;19929;-37
2022/03/08 05:11:38;;;;;;;;;;;-3.70;98.60;;;-4.72;74.78;97611.03;4979268;28;20283;-34
2022/03/08 05:14:04;;;;;;;;;;;-3.60;98.60;;;-4.69;74.54;97611.13;4961032;28;20273;-36
2022/03/08 05:16:30;;;;;;;;;;;-3.60;98.50;;;-4.71;74.57;97608.50;4971452;28;19929;-34
2022/03/08 05:18:55;;;;;;;;;;;-3.60;98.60;;;-4.71;75.09;97605.06;4975569;28;19937;-36
2022/03/08 05:21:21;;;;;;;;;;;-3.60;98.70;;;-4.78;75.70;97591.16;4970123;28;19959;-34
2022/03/08 05:23:46;;;;;;;;;;;-3.70;98.90;;;-4.74;75.92;97599.81;4987720;28;19913;-35
2022/03/08 05:26:12;;;;;;;;;;;-3.60;99.00;;;-4.77;76.23;97595.47;4980755;28;19922;-35
2022/03/08 05:28:38;;;;;;;;;;;-3.70;99.10;;;-4.80;76.00;97597.97;4987090;28;19949;-36
2022/03/08 05:31:03;;;;;;;;;;;-3.70;99.10;;;-4.80;75.25;97598.81;4979161;28;19921;-36
2022/03/08 05:33:29;;;;;;;;;;;-3.70;98.80;;;-4.74;75.88;97589.53;4972689;28;20186;-35
2022/03/08 05:35:55;;;;;;;;;;;-3.70;99.10;;;-4.81;75.60;97591.97;4967791;28;19988;-36
2022/03/08 05:38:20;;;;;;;;;;;-3.70;99.10;;;-4.77;75.73;97589.44;4985503;28;20007;-39
2022/03/08 05:40:46;;;;;;;;;;;-3.70;99.00;;;-4.78;75.12;97601.44;4985807;28;19920;-40
2022/03/08 05:43:11;;;;;;;;;;;-3.60;98.80;;;-4.76;74.46;97597.22;4985881;28;19920;-36
2022/03/08 05:45:37;;;;;;;;;;;-3.70;98.60;;;-4.74;74.01;97599.81;4982903;28;19957;-36
2022/03/08 05:48:03;;;;;;;;;;;-3.70;98.50;;;-4.73;74.80;97594.72;4973736;28;20027;-37
2022/03/08 05:50:29;;;;;;;;;;;-3.70;98.70;;;-4.74;75.24;97597.25;4983551;28;20305;-37
2022/03/08 05:52:54;;;;;;;;;;;-3.70;98.90;;;-4.83;75.39;97588.47;4980111;28;19913;-41
2022/03/08 05:55:20;;;;;;;;;;;-3.70;99.10;;;-4.73;76.13;97606.72;4980532;28;19926;-35
2022/03/08 05:57:45;;;;;;;;;;;-3.70;99.40;;;-4.75;76.38;97598.97;4989519;28;19941;-40
2022/03/08 06:00:11;;;;;;;;;;;-3.70;99.40;;;-4.74;76.53;97599.81;4980325;28;19921;-38
2022/03/08 06:02:37;;;;;;;;;;;-3.70;99.50;;;-4.78;76.85;97587.72;4984791;28;20422;-37
2022/03/08 06:05:03;;;;;;;;;;;-3.70;99.60;;;-4.73;76.72;97604.16;4985199;28;19921;-38
2022/03/08 06:07:29;;;;;;;;;;;-3.70;99.60;;;-4.71;76.62;97602.50;4974590;28;19921;-41
2022/03/08 06:09:54;;;;;;;;;;;-3.60;99.60;;;-4.67;76.69;97604.31;4983542;28;19922;-38
2022/03/08 06:12:20;;;;;;;;;;;-3.60;99.60;;;-4.63;76.91;97611.25;4973149;28;20003;-36
2022/03/08 06:14:45;;;;;;;;;;;-3.60;99.80;;;-4.57;76.81;97616.59;4980026;28;20278;-37
2022/03/08 06:17:11;;;;;;;;;;;-3.50;99.80;;;-4.52;76.39;97616.69;4975494;28;20012;-45
2022/03/08 06:19:37;;;;;;;;;;;-3.50;99.70;;;-4.45;76.46;97626.31;4962240;28;19913;-37
2022/03/08 06:22:04;;;;;;;;;;;-3.40;99.80;;;-4.41;76.30;97634.16;4977167;28;20511;-41
2022/03/08 06:24:30;;;;;;;;;;;-3.40;99.60;;;-4.33;76.17;97625.75;4982662;28;20395;-35
2022/03/08 06:26:55;;;;;;;;;;;-3.30;99.60;;;-4.27;76.42;97631.06;4980558;28;19922;-40
2022/03/08 06:29:21;;;;;;;;;;;-3.20;99.80;;;-4.20;75.92;97627.78;4985744;28;20300;-35
2022/03/08 06:31:46;;;;;;;;;;;-3.20;99.70;;;-4.14;75.29;97633.13;4988884;28;19929;-36
2022/03/08 06:34:12;;;;;;;;;;;-3.10;99.40;;;-4.07;74.98;97632.44;4987809;28;19972;-34
2022/03/08 06:36:41;;;;;;;;;;;-3.00;99.30;;;-3.92;72.91;97643.94;4983101;28;20273;-38
2022/03/08 06:39:07;;;;;;;;;;;-2.90;98.70;;;-3.79;71.83;97638.22;4989445;28;20000;-34
2022/03/08 06:41:32;;;;;;;;;;;-2.70;98.20;;;-3.69;71.22;97641.91;4991279;28;20017;-39
2022/03/08 06:44:02;;;;;;;;;;;-2.60;98.00;;;-3.61;69.77;97637.78;4983848;28;19957;-36
2022/03/08 06:46:27;;;;;;;;;;;-2.60;97.50;;;-3.46;68.32;97645.00;4986283;28;19991;-34
2022/03/08 06:48:53;;;;;;;;;;;-2.40;97.00;;;-3.37;68.07;97649.50;4991282;28;19925;-35
2022/03/08 06:51:19;;;;;;;;;;;-2.40;96.80;;;-3.34;68.73;97650.44;4983278;28;19929;-36
2022/03/08 06:53:45;;;;;;;;;;;-2.30;97.00;;;-3.28;68.73;97649.69;4986320;28;20360;-37
2022/03/08 06:56:10;;;;;;;;;;;-2.20;97.00;;;-3.26;67.88;97658.34;4982773;28;19968;-37
2022/03/08 06:58:36;;;;;;;;;;;-2.20;96.70;;;-3.17;67.36;97660.25;4976953;28;19950;-38
2022/03/08 07:01:01;;;;;;;;;;;-2.10;96.50;;;-3.10;66.84;97659.53;4983052;28;19992;-35
2022/03/08 07:03:27;;;;;;;;;;;-2.00;96.40;;;-3.06;67.01;97669.06;4988114;28;20060;-37
2022/03/08 07:05:53;;;;;;;;;;;-2.00;96.30;;;-3.08;66.33;97663.00;4991667;28;20003;-37
2022/03/08 07:08:18;;;;;;;;;;;-2.00;96.10;;;-3.00;66.56;97670.91;4983328;28;19921;-38
2022/03/08 07:10:44;;;;;;;;;;;-1.90;96.20;;;-2.95;66.40;97672.72;4982447;28;20283;-35
2022/03/08 07:13:10;;;;;;;;;;;-1.90;96.20;;;-2.91;66.48;97671.97;4982183;28;19917;-34
2022/03/08 07:15:35;;;;;;;;;;;-1.80;96.20;;;-2.90;66.14;97667.69;4989275;28;19953;-35
2022/03/08 07:18:01;;;;;;;;;;;-1.80;96.00;;;-2.76;65.76;97665.38;4978485;28;20016;-38
2022/03/08 07:20:27;;;;;;;;;;;-1.70;96.00;;;-2.72;65.58;97657.72;4985177;28;19921;-36
2022/03/08 07:22:52;;;;;;;;;;;-1.60;95.90;;;-2.60;65.58;97653.63;4983586;28;19914;-35
2022/03/08 07:25:18;;;;;;;;;;;-1.50;95.90;;;-2.51;65.63;97653.81;4986866;28;20381;-37
2022/03/08 07:27:44;;;;;;;;;;;-1.50;95.90;;;-2.38;64.97;97654.91;4989183;28;20490;-39
2022/03/08 07:30:10;;;;;;;;;;;-1.40;95.70;;;-2.24;64.04;97655.13;4983875;28;19963;-38
2022/03/08 07:32:36;;;;;;;;;;;-1.20;95.40;;;-2.11;62.73;97645.03;4990257;28;20294;-37
2022/03/08 07:35:02;;;;;;;;;;;-1.10;95.00;;;-1.95;62.30;97655.66;4988052;28;19926;-39
2022/03/08 07:37:28;;;;;;;;;;;-0.90;94.80;;;-1.83;62.15;97660.13;4973924;28;19929;-33
2022/03/08 07:39:55;;;;;;;;;;;-0.80;94.70;;;-1.62;60.84;97660.47;4985136;28;20105;-39
2022/03/08 07:42:20;;;;;;;;;;;-0.70;94.30;;;-1.49;60.39;97661.53;4979700;28;19922;-36
2022/03/08 07:44:46;;;;;;;;;;;-0.60;94.10;;;-1.33;59.69;97660.03;4982631;28;19913;-36
2022/03/08 07:47:12;;;;;;;;;;;-0.40;93.90;;;-1.23;59.35;97664.50;4985267;28;19922;-38
2022/03/08 07:49:37;;;;;;;;;;;-0.30;93.70;;;-1.16;59.30;97660.28;4988691;28;19975;-38
2022/03/08 07:52:04;;;;;;;;;;;-0.20;93.70;;;-1.06;58.97;97664.75;4987189;28;20339;-36
2022/03/08 07:54:29;;;;;;;;;;;-0.10;93.50;;;-0.93;58.85;97668.34;4989808;28;20114;-36
2022/03/08 07:56:55;;;;;;;;;;;0.10;93.40;;;-0.88;59.10;97668.38;4992374;28;19914;-37
2022/03/08 07:59:20;;;;;;;;;;;0.10;93.50;;;-0.74;58.49;97676.34;4986291;28;20318;-37
2022/03/08 08:01:46;;;;;;;;;;;0.20;93.30;;;-0.63;57.89;97673.03;4980329;28;20023;-37
2022/03/08 08:04:12;;;;;;;;;;;0.30;93.10;;;-0.56;57.47;97675.69;4988506;28;19913;-36
2022/03/08 08:06:37;;;;;;;;;;;0.40;92.80;;;-0.44;57.63;97675.81;4987767;28;19979;-39
2022/03/08 08:09:03;;;;;;;;;;;0.50;93.00;;;-0.37;57.82;97671.59;4981422;28;20303;-37
2022/03/08 08:11:29;;;;;;;;;;;0.60;93.00;;;-0.27;57.10;97676.00;4985000;28;19921;-34
2022/03/08 08:13:54;;;;;;;;;;;0.60;92.80;;;-0.24;57.15;97673.44;4987112;28;20330;-38
2022/03/08 08:16:20;;;;;;;;;;;0.70;92.70;;;-0.10;56.70;97668.41;4980766;28;20007;-35
2022/03/08 08:18:46;;;;;;;;;;;0.80;92.60;;;0.05;56.36;97670.25;4985340;28;20000;-35
2022/03/08 08:21:12;;;;;;;;;;;1.00;92.40;;;0.08;56.79;97665.97;4980840;28;19920;-36
2022/03/08 08:23:37;;;;;;;;;;;1.00;92.50;;;0.18;56.50;97678.16;4986952;28;19921;-34
2022/03/08 08:26:03;;;;;;;;;;;1.10;92.50;;;0.24;56.16;97682.53;4985641;28;19922;-42
2022/03/08 08:28:29;;;;;;;;;;;1.20;92.30;;;0.24;56.00;97668.69;4984701;28;20008;-38
2022/03/08 08:30:54;;;;;;;;;;;1.20;92.10;;;0.38;55.58;97678.31;4982388;28;19971;-40
2022/03/08 08:33:20;;;;;;;;;;;1.30;92.00;;;0.46;54.73;97673.19;4980650;28;19992;-36
2022/03/08 08:35:46;;;;;;;;;;;1.40;91.70;;;0.52;55.06;97681.03;4983199;28;20284;-37
2022/03/08 08:38:12;;;;;;;;;;;1.50;91.70;;;0.56;55.32;97675.00;4987041;28;20015;-38
2022/03/08 08:40:37;;;;;;;;;;;1.50;91.60;;;0.72;54.61;97682.91;4982485;28;20375;-36
2022/03/08 08:43:05;;;;;;;;;;;1.60;91.70;;;0.78;54.60;97676.88;4972865;28;20127;-37
2022/03/08 08:45:31;;;;;;;;;;;1.70;91.60;;;0.92;55.19;97670.03;4983860;28;19964;-35
2022/03/08 08:47:57;;;;;;;;;;;1.80;91.80;;;1.04;53.48;97674.41;4986619;28;19922;-38
2022/03/08 08:50:23;;;;;;;;;;;1.90;91.20;;;1.15;53.16;97664.97;4986896;28;19924;-39
2022/03/08 08:52:48;;;;;;;;;;;2.00;90.80;;;1.41;52.40;97666.78;4972193;28;19971;-37
2022/03/08 08:55:14;;;;;;;;;;;2.20;90.80;;;1.60;51.81;97660.78;4979050;28;20016;-38
2022/03/08 08:57:40;;;;;;;;;;;2.40;90.60;;;1.74;51.60;97657.34;4984999;28;19960;-35
2022/03/08 09:00:07;;;;;;;;;;;2.50;90.30;;;1.83;50.88;97658.25;4976878;28;19928;-38
2022/03/08 09:02:33;;;;;;;;;;;2.70;89.40;;;1.98;50.81;97653.94;4977227;28;19928;-38
2022/03/08 09:04:58;;;;;;;;;;;2.70;89.50;;;2.13;50.73;97659.13;4983903;28;19918;-40
2022/03/08 09:07:24;;;;;;;;;;;2.90;89.30;;;2.17;50.56;97653.09;4983762;28;20226;-36
2022/03/08 09:09:50;;;;;;;;;;;3.00;88.80;;;2.38;50.25;97648.75;4983147;28;19921;-35
2022/03/08 09:12:15;;;;;;;;;;;3.10;88.60;;;2.46;49.72;97647.00;4982564;28;20036;-40
2022/03/08 09:14:41;;;;;;;;;;;3.20;87.80;;;2.54;48.77;97637.44;4983271;28;19922;-36
2022/03/08 09:17:06;;;;;;;;;;;3.30;86.90;;;2.70;49.33;97650.44;4977894;28;19921;-37
2022/03/08 09:19:32;;;;;;;;;;;3.40;87.30;;;2.79;48.64;97637.41;4985851;28;19990;-34
2022/03/08 09:21:58;;;;;;;;;;;3.50;86.50;;;2.80;48.66;97640.00;4982650;28;20410;-41
2022/03/08 09:24:23;;;;;;;;;;;3.60;85.90;;;2.87;47.91;97630.41;4958537;28;19925;-36
2022/03/08 09:26:49;;;;;;;;;;;3.60;85.10;;;3.03;47.59;97631.25;4979329;28;20307;-36
2022/03/08 09:29:14;;;;;;;;;;;3.70;85.30;;;3.12;47.36;97630.34;4979747;28;19953;-37
2022/03/08 09:31:40;;;;;;;;;;;3.80;84.80;;;3.20;47.54;97644.22;4980496;28;19972;-40
2022/03/08 09:34:06;;;;;;;;;;;3.90;84.80;;;3.17;47.30;97645.09;4984101;28;20515;-34
2022/03/08 09:36:32;;;;;;;;;;;4.00;84.30;;;3.23;46.92;97637.25;4975293;28;19931;-35
2022/03/08 09:38:58;;;;;;;;;;;4.00;83.70;;;3.36;46.55;97642.44;4977704;28;19921;-39
2022/03/08 09:41:24;;;;;;;;;;;4.10;83.20;;;3.29;45.97;97627.69;4988724;28;19913;-38
2022/03/08 09:43:50;;;;;;;;;;;4.10;82.20;;;3.54;44.93;97642.34;4962103;28;19932;-35
2022/03/08 09:46:16;;;;;;;;;;;4.20;80.90;;;3.65;44.43;97649.25;4982933;28;19935;-37
2022/03/08 09:48:42;;;;;;;;;;;4.40;80.20;;;3.59;44.79;97637.97;4986976;28;20034;-38
2022/03/08 09:51:08;;;;;;;;;;;4.30;80.50;;;3.69;44.08;97637.91;4984337;28;20371;-35
2022/03/08 09:53:35;;;;;;;;;;;4.40;79.50;;;3.73;43.73;97642.22;4971181;28;19964;-39
2022/03/08 09:56:02;;;;;;;;;;;4.40;78.40;;;3.80;43.70;97643.91;4970408;28;19929;-38
2022/03/08 09:58:28;;;;;;;;;;;4.50;78.30;;;3.83;43.69;97638.69;4978689;28;19922;-41
2022/03/08 10:00:55;;;;;;;;;;;4.50;79.50;;;3.76;44.14;97631.78;4978772;28;19981;-36
2022/03/08 10:03:35;;;;;;;;;;;4.50;78.80;;;3.68;44.31;97625.72;4981420;28;19924;-38
2022/03/08 10:06:04;;;;;;;;;;;4.50;78.70;;;3.73;43.78;97626.56;4977589;28;19924;-38
2022/03/08 10:08:30;;;;;;;;;;;4.50;78.40;;;3.71;44.11;97623.13;4984165;28;19940;-37
2022/03/08 10:11:00;;;;;;;;;;;4.50;79.30;;;3.80;43.93;97630.88;4986053;28;19913;-41
2022/03/08 10:13:29;;;;;;;;;;;4.50;78.80;;;3.89;44.58;97625.59;4974442;28;21470;-38
2022/03/08 10:16:14;;;;;;;;;;;4.60;79.80;;;4.01;43.84;97622.91;4972506;28;20355;-36
2022/03/08 10:18:48;;;;;;;;;;;4.70;78.80;;;3.94;42.83;97626.44;4977893;28;20382;-39
2022/03/08 10:21:32;;;;;;;;;;;4.70;76.80;;;4.05;43.21;97621.13;4985017;28;19914;-37
2022/03/08 10:23:59;;;;;;;;;;;4.70;76.90;;;4.32;42.47;97608.75;4970638;28;19932;-37
2022/03/08 10:26:25;;;;;;;;;;;4.90;76.70;;;4.36;42.57;97606.09;4982507;28;19914;-42
2022/03/08 10:28:53;;;;;;;;;;;5.00;76.20;;;4.36;42.72;97611.31;4974131;28;19963;-36
2022/03/08 10:31:20;;;;;;;;;;;5.00;76.70;;;4.51;42.13;97614.69;4982284;28;20004;-39
2022/03/08 10:33:47;;;;;;;;;;;5.10;75.80;;;4.76;41.07;97613.53;4984053;28;20283;-39
2022/03/08 10:36:20;;;;;;;;;;;5.30;74.50;;;4.72;41.88;97613.56;4982504;28;19921;-39
2022/03/08 10:39:11;;;;;;;;;;;5.30;74.60;;;4.81;41.53;97615.22;4983193;28;20008;-37
2022/03/08 10:41:47;;;;;;;;;;;5.40;75.20;;;4.83;40.34;97603.00;4986901;28;20405;-40
2022/03/08 10:44:14;;;;;;;;;;;5.50;72.70;;;4.76;40.96;97602.25;4984770;28;19941;-35
2022/03/08 10:46:39;;;;;;;;;;;5.50;73.20;;;4.76;40.47;97607.47;4980410;28;20008;-39
2022/03/08 10:49:12;;;;;;;;;;;5.50;72.80;;;4.83;40.09;97597.78;4980564;28;19917;-42
2022/03/08 10:51:38;;;;;;;;;;;5.50;72.00;;;4.75;40.12;97605.72;4984714;28;19956;-36
2022/03/08 10:54:14;;;;;;;;;;;5.50;71.70;;;4.80;39.37;97603.06;4982586;28;21745;-38
2022/03/08 10:56:44;;;;;;;;;;;5.50;72.00;;;4.97;39.23;97598.50;5034896;23;19936;-46
2022/03/08 10:59:12;;;;;;;;;;;5.60;70.30;;;4.85;38.49;97601.28;5008011;28;19917;-45
2022/03/08 11:01:38;;;;;;;;;;;5.60;69.20;;;4.79;38.70;97591.72;5018718;28;19912;-47
2022/03/08 11:04:04;;;;;;;;;;;5.50;68.80;;;4.75;38.92;97606.56;5019765;28;19924;-41
2022/03/08 11:06:31;;;;;;;;;;;5.50;69.40;;;4.79;38.83;97581.28;4995257;28;20463;-39
2022/03/08 11:08:56;;;;;;;;;;;5.50;69.00;;;4.77;38.88;97568.25;4982224;28;20037;-41
2022/03/08 11:11:22;;;;;;;;;;;5.50;69.60;;;4.78;39.48;97575.19;5007940;28;19924;-40
2022/03/08 11:13:51;;;;;;;;;;;5.60;70.20;;;4.85;38.74;97576.00;5017234;28;19917;-44
2022/03/08 11:16:18;;;;;;;;;;;5.60;69.20;;;4.81;39.12;97582.16;5023408;28;19921;-43
2022/03/08 11:18:50;;;;;;;;;;;5.50;69.40;;;4.88;38.32;97569.84;5021143;28;20133;-43